Catàleg de serveis del Meteocat
Campanya meteocatpedra

Dades de l'estació automàtica Castellnou de Bages

?
?
Resum diari 22:30 TU
Dades diàries de l'estació meteorològica
Temperatura mitjana 6.5 °C
Temperatura màxima 12.6 °C 14:05 TU
Temperatura mínima 2.4 °C 2:46 TU
Humitat relativa mitjana 82%
Precipitació acumulada 0.0 mm
Ratxa màxima del vent (10 m) 25.2 km/h - 249º 17:09 TU
Irradiació solar global 5.8 MJ/m2

El tram horari està expressat en Temps Universal (TU). Cal sumar una hora en horari d'hivern i dues en horari d'estiu per passar a l'hora oficial.

Castellnou de Bages

Metadades estació meteorol´gica
Municipi Castellnou de Bages
Comarca Bages
Altitud 507 m
Data alta 22.01.1998
Estat actual Operativa
Dades de període
Període
TU
TM
°C
TX
°C
TN
°C
HRM
%
PPT
mm
VVM (10 m)
km/h
DVM (10 m)
graus
VVX (10 m)
km/h
RS
W/m2
00:00 - 00:30 5.8 6.2 5.6 84 0.0 3.2 318 10.8 0
00:30 - 01:00 5.4 5.8 4.9 85 0.0 5.4 298 13.3 0
01:00 - 01:30 4.8 5.1 4.6 89 0.0 5.4 322 9.4 0
01:30 - 02:00 4.9 5.2 4.6 88 0.0 6.5 294 10.1 0
02:00 - 02:30 4.1 4.7 3.2 91 0.0 4.7 6 9.0 0
02:30 - 03:00 2.8 3.4 2.4 95 0.0 5.0 32 11.2 0
03:00 - 03:30 2.9 3.4 2.6 94 0.0 5.4 20 11.2 0
03:30 - 04:00 3.0 3.1 2.7 95 0.0 5.0 15 9.7 0
04:00 - 04:30 3.1 3.4 2.9 92 0.0 6.5 8 12.2 0
04:30 - 05:00 3.0 3.2 2.8 88 0.0 7.2 4 12.6 0
05:00 - 05:30 2.8 3.0 2.7 90 0.0 7.2 8 13.3 0
05:30 - 06:00 3.2 3.3 3.1 90 0.0 6.1 7 12.6 0
06:00 - 06:30 3.2 3.4 2.9 89 0.0 7.6 9 15.8 0
06:30 - 07:00 3.3 3.4 2.9 90 0.0 6.5 10 15.1 4
07:00 - 07:30 3.6 3.7 3.4 88 0.0 7.2 4 14.0 22
07:30 - 08:00 4.1 4.5 3.7 87 0.0 5.0 358 10.4 31
08:00 - 08:30 4.8 4.9 4.5 87 0.0 2.2 325 6.8 47
08:30 - 09:00 4.9 5.1 4.7 86 0.0 1.8 20 6.5 37
09:00 - 09:30 5.6 5.9 5.2 85 0.0 2.2 211 5.0 113
09:30 - 10:00 6.2 6.6 5.9 85 0.0 2.5 244 4.7 58
10:00 - 10:30 6.9 7.1 6.7 81 0.0 3.2 225 6.5 114
10:30 - 11:00 6.7 7.1 6.2 82 0.0 1.8 175 5.8 102
11:00 - 11:30 6.9 7.4 6.6 83 0.0 2.5 177 5.8 155
11:30 - 12:00 7.7 8.5 7.3 81 0.0 3.2 232 6.1 182
12:00 - 12:30 9.1 9.5 8.5 75 0.0 4.7 225 8.6 249
12:30 - 13:00 10.7 11.6 9.6 70 0.0 4.7 195 13.7 451
13:00 - 13:30 11.6 12.5 11.0 67 0.0 7.2 208 14.0 437
13:30 - 14:00 12.0 12.3 11.7 65 0.0 8.6 182 18.4 389
14:00 - 14:30 12.1 12.6 11.6 64 0.0 8.6 181 14.4 320
14:30 - 15:00 11.8 12.0 11.5 65 0.0 9.0 189 16.6 249
15:00 - 15:30 11.7 11.9 11.4 65 0.0 12.2 219 20.2 173
15:30 - 16:00 10.8 11.4 10.1 66 0.0 10.4 246 19.8 95
16:00 - 16:30 9.5 10.1 8.6 73 0.0 10.1 243 16.9 28
16:30 - 17:00 8.1 8.5 7.9 79 0.0 8.6 252 16.6 0
17:00 - 17:30 8.2 8.4 7.8 81 0.0 13.0 246 25.2 0
17:30 - 18:00 7.3 7.8 6.8 85 0.0 4.3 221 10.4 0
18:00 - 18:30 6.7 7.1 6.3 88 0.0 4.7 243 10.8 0
18:30 - 19:00 6.5 6.8 6.2 89 0.0 2.9 282 7.9 0
19:00 - 19:30 6.7 7.0 6.5 90 0.0 3.2 342 8.6 0
19:30 - 20:00 6.8 7.3 6.4 89 0.0 4.7 277 11.9 0
20:00 - 20:30 7.3 7.5 7.0 80 0.0 7.6 255 14.4 0
20:30 - 21:00 6.4 7.0 6.0 84 0.0 3.2 185 6.5 0
21:00 - 21:30 6.5 6.8 6.0 79 0.0 6.1 286 13.0 0
21:30 - 22:00 6.3 6.4 6.1 77 0.0 7.9 309 10.8 0
22:00 - 22:30 6.3 6.4 6.3 77 0.0 6.1 293 9.7 0
22:30 - 23:00 5.4 6.1 4.7 81 0.0 4.0 223 9.4 0

Les dades en taronja només han passat un control de qualitat automàtic. Resta pendent la seva validació definitiva.